createdAt,value
2022-11-09T00:00:48.505Z,57.38
2022-11-09T00:03:16.809Z,52.08
2022-11-09T00:05:44.000Z,48.63
2022-11-09T00:08:12.703Z,52.15
2022-11-09T00:10:40.213Z,53.45
2022-11-09T00:13:07.072Z,53.80
2022-11-09T00:15:34.133Z,53.65
2022-11-09T00:18:03.439Z,49.95
2022-11-09T00:20:30.606Z,51.13
2022-11-09T00:22:59.495Z,50.03
2022-11-09T00:25:26.259Z,51.13
2022-11-09T00:27:53.365Z,48.78
2022-11-09T00:30:20.476Z,45.85
2022-11-09T00:32:50.243Z,46.13
2022-11-09T00:35:17.140Z,46.97
2022-11-09T00:37:44.070Z,48.13
2022-11-09T00:40:11.479Z,56.28
2022-11-09T00:42:38.180Z,61.28
2022-11-09T00:45:05.610Z,66.65
2022-11-09T00:47:32.469Z,55.20
2022-11-09T00:49:59.766Z,63.22
2022-11-09T00:52:26.485Z,55.30
2022-11-09T00:54:53.184Z,60.70
2022-11-09T00:57:20.253Z,60.10
2022-11-09T00:59:47.064Z,67.72
2022-11-09T01:02:13.977Z,67.43
2022-11-09T01:04:40.669Z,60.28
2022-11-09T01:07:08.402Z,64.78
2022-11-09T01:09:35.155Z,68.55
2022-11-09T01:12:01.909Z,69.70
2022-11-09T01:14:28.831Z,58.50
2022-11-09T01:16:55.601Z,61.42
2022-11-09T01:19:22.309Z,65.45
2022-11-09T01:21:49.200Z,56.88
2022-11-09T01:24:15.982Z,57.72
2022-11-09T01:26:42.677Z,53.85
2022-11-09T01:29:09.553Z,65.32
2022-11-09T01:31:36.349Z,49.83
2022-11-09T01:34:03.144Z,51.15
2022-11-09T01:36:30.193Z,56.78
2022-11-09T01:38:56.950Z,53.88
2022-11-09T01:41:28.643Z,57.88
2022-11-09T01:44:16.955Z,68.57
2022-11-09T01:46:43.709Z,63.92
2022-11-09T01:49:34.481Z,61.58
2022-11-09T01:54:46.824Z,50.03
2022-11-09T01:57:24.382Z,58.00
2022-11-09T01:59:59.331Z,51.78
2022-11-09T02:02:26.161Z,49.00
2022-11-09T02:04:58.335Z,50.25
2022-11-09T02:07:25.621Z,61.35
2022-11-09T02:10:02.944Z,54.65
2022-11-09T02:12:34.235Z,49.63
2022-11-09T02:15:04.744Z,58.17
2022-11-09T02:17:31.607Z,65.40
2022-11-09T02:19:59.130Z,48.92
2022-11-09T02:22:26.273Z,70.78
2022-11-09T02:24:56.264Z,60.80
2022-11-09T02:27:24.299Z,49.92
2022-11-09T02:29:51.839Z,56.00
2022-11-09T02:32:22.752Z,53.15
2022-11-09T02:34:49.685Z,50.88
2022-11-09T02:37:37.655Z,53.97
2022-11-09T02:40:09.652Z,52.22
2022-11-09T02:42:36.396Z,49.60
2022-11-09T02:45:03.362Z,53.58
2022-11-09T02:47:30.133Z,60.80
2022-11-09T02:49:58.093Z,57.58
2022-11-09T02:52:25.462Z,58.45
2022-11-09T02:54:52.225Z,49.58
2022-11-09T02:57:19.262Z,49.85
2022-11-09T02:59:45.934Z,50.55
2022-11-09T03:02:12.666Z,59.20
2022-11-09T03:04:39.628Z,57.33
2022-11-09T03:07:08.313Z,48.88
2022-11-09T03:09:35.069Z,50.63
2022-11-09T03:12:21.862Z,49.90
2022-11-09T03:14:48.569Z,56.20
2022-11-09T03:17:16.826Z,45.13
2022-11-09T03:19:43.752Z,58.78
2022-11-09T03:22:10.489Z,50.85
2022-11-09T03:24:37.353Z,47.83
2022-11-09T03:27:04.151Z,56.47
2022-11-09T03:29:31.090Z,51.58
2022-11-09T03:31:57.822Z,55.20
2022-11-09T03:34:24.555Z,49.60
2022-11-09T03:36:51.462Z,50.88
2022-11-09T03:39:18.139Z,66.80
2022-11-09T03:41:44.882Z,58.17
2022-11-09T03:44:11.759Z,80.03
2022-11-09T03:46:39.613Z,94.35
2022-11-09T03:49:06.433Z,88.43
2022-11-09T03:51:33.606Z,69.70
2022-11-09T03:54:01.930Z,67.65
2022-11-09T03:56:28.635Z,67.28
2022-11-09T03:58:55.518Z,72.72
2022-11-09T04:01:22.310Z,77.88
2022-11-09T04:03:49.003Z,54.75
2022-11-09T04:06:15.949Z,54.35
2022-11-09T04:08:47.028Z,81.57
2022-11-09T04:11:17.008Z,87.80
2022-11-09T04:13:43.758Z,82.88
2022-11-09T04:16:10.502Z,90.72
2022-11-09T04:18:37.380Z,98.82
2022-11-09T04:21:04.064Z,80.10
2022-11-09T04:23:30.771Z,66.65
2022-11-09T04:25:59.527Z,81.50
2022-11-09T04:28:26.701Z,53.70
2022-11-09T04:30:53.453Z,69.10
2022-11-09T04:33:20.774Z,66.72
2022-11-09T04:35:47.854Z,66.85
2022-11-09T04:38:14.888Z,57.28
2022-11-09T04:40:42.042Z,57.60
2022-11-09T04:43:13.130Z,51.83
2022-11-09T04:45:39.922Z,52.40
2022-11-09T04:48:08.107Z,48.15
2022-11-09T04:50:35.080Z,53.13
2022-11-09T04:53:12.697Z,54.83
2022-11-09T04:55:40.365Z,54.58
2022-11-09T04:58:07.558Z,54.60
2022-11-09T05:00:34.726Z,56.88
2022-11-09T05:03:05.942Z,58.55
2022-11-09T05:05:37.147Z,57.08
2022-11-09T05:08:04.705Z,63.50
2022-11-09T05:10:31.642Z,65.38
2022-11-09T05:13:06.851Z,74.97
2022-11-09T05:15:34.797Z,67.88
2022-11-09T05:18:02.156Z,69.88
2022-11-09T05:20:29.465Z,73.47
2022-11-09T05:23:16.736Z,67.30
2022-11-09T05:25:43.649Z,62.25
2022-11-09T05:28:10.871Z,59.33
2022-11-09T05:30:38.104Z,56.17
2022-11-09T05:33:05.224Z,44.60
2022-11-09T05:35:33.476Z,51.45
2022-11-09T05:38:00.387Z,50.05
2022-11-09T05:40:27.089Z,47.42
2022-11-09T05:42:56.172Z,57.42
2022-11-09T05:45:42.094Z,55.80
2022-11-09T05:48:10.768Z,56.13
2022-11-09T05:50:38.382Z,60.20
2022-11-09T05:53:05.473Z,57.13
2022-11-09T05:55:32.411Z,62.47
2022-11-09T05:57:59.204Z,66.30
2022-11-09T06:00:26.597Z,63.55
2022-11-09T06:02:53.663Z,61.47
2022-11-09T06:05:21.402Z,62.22
2022-11-09T06:07:48.095Z,69.38
2022-11-09T06:10:15.031Z,62.58
2022-11-09T06:12:41.705Z,63.97
2022-11-09T06:15:08.949Z,55.58
2022-11-09T06:17:35.834Z,61.33
2022-11-09T06:20:04.158Z,56.15
2022-11-09T06:22:31.060Z,57.13
2022-11-09T06:24:58.173Z,58.28
2022-11-09T06:27:24.929Z,67.88
2022-11-09T06:29:51.641Z,57.67
2022-11-09T06:32:18.581Z,63.72
2022-11-09T06:34:48.243Z,55.00
2022-11-09T06:37:17.754Z,60.33
2022-11-09T06:39:45.509Z,60.25
2022-11-09T06:42:12.236Z,64.22
2022-11-09T06:44:38.984Z,57.28
2022-11-09T06:47:05.793Z,64.90
2022-11-09T06:49:32.484Z,66.88
2022-11-09T06:51:59.189Z,50.72
2022-11-09T06:54:26.133Z,59.58
2022-11-09T06:56:55.061Z,52.65
2022-11-09T06:59:22.312Z,51.63
2022-11-09T07:01:49.792Z,58.20
2022-11-09T07:04:16.829Z,50.40
2022-11-09T07:06:43.640Z,55.45
2022-11-09T07:09:12.603Z,56.00
2022-11-09T07:11:39.503Z,58.42
2022-11-09T07:14:06.271Z,56.90
2022-11-09T07:16:33.937Z,57.05
2022-11-09T07:19:00.692Z,65.72
2022-11-09T07:21:27.624Z,54.00
2022-11-09T07:23:54.406Z,48.63
2022-11-09T07:26:21.158Z,48.25
2022-11-09T07:28:47.992Z,44.95
2022-11-09T07:31:14.782Z,45.47
2022-11-09T07:33:41.824Z,43.05
2022-11-09T07:36:09.534Z,41.65
2022-11-09T07:38:36.225Z,39.45
2022-11-09T07:41:03.325Z,36.78
2022-11-09T07:43:30.116Z,38.30
2022-11-09T07:45:57.438Z,41.47
2022-11-09T07:48:24.165Z,36.17
2022-11-09T07:50:50.982Z,39.10
2022-11-09T07:53:18.680Z,32.80
2022-11-09T07:55:45.714Z,36.95
2022-11-09T07:58:15.656Z,38.33
2022-11-09T08:00:44.035Z,37.33
2022-11-09T08:03:11.141Z,33.95
2022-11-09T08:05:39.096Z,32.72
2022-11-09T08:08:10.600Z,33.05
2022-11-09T08:10:38.097Z,35.00
2022-11-09T08:13:11.284Z,30.23
2022-11-09T08:15:39.075Z,34.78
2022-11-09T08:18:10.353Z,32.60
2022-11-09T08:20:37.324Z,38.40
2022-11-09T08:23:04.953Z,33.40
2022-11-09T08:25:35.863Z,30.15
2022-11-09T08:28:03.734Z,28.38
2022-11-09T08:30:30.664Z,30.08
2022-11-09T08:32:59.296Z,34.85
2022-11-09T08:35:27.819Z,28.67
2022-11-09T08:37:55.022Z,29.02
2022-11-09T08:40:26.815Z,30.27
2022-11-09T08:42:53.946Z,27.55
2022-11-09T08:45:21.044Z,32.60
2022-11-09T08:47:48.350Z,30.83
2022-11-09T08:50:16.022Z,38.92
2022-11-09T08:52:42.788Z,29.20
2022-11-09T08:55:10.459Z,29.27
2022-11-09T08:57:37.270Z,38.85
2022-11-09T09:00:05.044Z,40.83
2022-11-09T09:02:31.882Z,41.53
2022-11-09T09:04:58.571Z,30.80
2022-11-09T09:07:25.638Z,30.63
2022-11-09T09:09:52.542Z,31.48
2022-11-09T09:12:19.292Z,28.30
2022-11-09T09:14:46.087Z,29.40
2022-11-09T09:17:13.061Z,29.60
2022-11-09T09:19:39.831Z,30.80
2022-11-09T09:22:06.995Z,33.08
2022-11-09T09:24:34.055Z,34.42
2022-11-09T09:27:03.908Z,34.60
2022-11-09T09:29:31.880Z,31.65
2022-11-09T09:31:58.707Z,30.48
2022-11-09T09:34:26.263Z,30.80
2022-11-09T09:36:53.813Z,29.30
2022-11-09T09:39:21.016Z,31.80
2022-11-09T09:41:53.464Z,28.35
2022-11-09T09:44:33.478Z,32.05
2022-11-09T09:47:14.516Z,28.75
2022-11-09T09:50:00.422Z,29.52
2022-11-09T09:53:04.771Z,30.80
2022-11-09T09:55:39.053Z,28.65
2022-11-09T09:58:23.869Z,28.83
2022-11-09T10:00:55.156Z,29.45
2022-11-09T10:03:22.035Z,25.23
2022-11-09T10:06:07.229Z,24.58
2022-11-09T10:09:06.086Z,24.48
2022-11-09T10:11:47.298Z,28.45
2022-11-09T10:14:47.725Z,26.35
2022-11-09T10:17:40.785Z,25.77
2022-11-09T10:20:33.370Z,29.00
2022-11-09T10:23:30.513Z,27.00
2022-11-09T10:26:18.034Z,29.48
2022-11-09T10:29:14.632Z,28.02
2022-11-09T10:31:36.528Z,29.98
2022-11-09T10:34:28.936Z,29.40
2022-11-09T10:37:13.361Z,24.58
2022-11-09T10:39:51.419Z,27.23
2022-11-09T10:42:18.313Z,28.58
2022-11-09T10:44:44.979Z,27.13
2022-11-09T10:47:14.759Z,31.05
2022-11-09T10:49:41.770Z,24.95
2022-11-09T10:52:47.357Z,28.95
2022-11-09T10:55:27.707Z,25.67
2022-11-09T10:58:22.173Z,24.90
2022-11-09T11:01:04.987Z,25.08
2022-11-09T11:03:35.682Z,24.20
2022-11-09T11:06:05.744Z,24.25
2022-11-09T11:08:36.477Z,24.13
2022-11-09T11:11:39.388Z,24.50
2022-11-09T11:14:18.419Z,26.98
2022-11-09T11:16:48.949Z,24.52
2022-11-09T11:19:34.890Z,28.92
2022-11-09T11:22:19.421Z,25.95
2022-11-09T11:25:01.713Z,23.88
2022-11-09T11:27:31.384Z,24.95
2022-11-09T11:30:11.024Z,23.52
2022-11-09T11:32:38.150Z,24.42
2022-11-09T11:35:13.390Z,27.05
2022-11-09T11:38:07.662Z,24.65
2022-11-09T11:40:40.555Z,24.98
2022-11-09T11:43:22.466Z,23.27
2022-11-09T11:46:05.570Z,23.80
2022-11-09T11:48:55.653Z,23.27
2022-11-09T11:51:46.155Z,24.10
2022-11-09T11:57:04.721Z,27.33
2022-11-09T11:59:56.710Z,25.30
2022-11-09T12:02:42.166Z,22.73
2022-11-09T12:05:30.021Z,24.25
2022-11-09T12:08:16.390Z,24.77
2022-11-09T12:11:00.005Z,24.65
2022-11-09T12:13:49.945Z,22.20
2022-11-09T12:16:41.615Z,22.52
2022-11-09T12:19:26.620Z,25.40
2022-11-09T12:22:13.252Z,24.77
2022-11-09T12:25:32.408Z,27.13
2022-11-09T12:28:24.200Z,21.13
2022-11-09T12:31:42.547Z,20.38
2022-11-09T12:34:48.461Z,25.75
2022-11-09T12:37:23.160Z,23.02
2022-11-09T12:39:54.920Z,30.45
2022-11-09T12:42:39.136Z,25.20
2022-11-09T12:45:25.991Z,22.77
2022-11-09T12:47:54.739Z,31.10
2022-11-09T12:50:25.597Z,32.33
2022-11-09T12:52:53.608Z,26.98
2022-11-09T12:55:41.967Z,23.50
2022-11-09T12:58:22.928Z,31.13
2022-11-09T13:00:53.179Z,28.45
2022-11-09T13:03:23.754Z,26.45
2022-11-09T13:06:17.326Z,25.33
2022-11-09T13:09:18.453Z,31.42
2022-11-09T13:11:51.439Z,25.77
2022-11-09T13:14:29.444Z,21.67
2022-11-09T13:17:25.152Z,25.42
2022-11-09T13:19:54.574Z,25.00
2022-11-09T13:22:21.388Z,24.30
2022-11-09T13:24:51.095Z,23.58
2022-11-09T13:27:37.487Z,21.45
2022-11-09T13:30:28.375Z,23.55
2022-11-09T13:33:07.120Z,23.88
2022-11-09T13:35:43.116Z,22.55
2022-11-09T13:38:16.974Z,21.75
2022-11-09T13:40:51.311Z,20.30
2022-11-09T13:43:30.557Z,21.75
2022-11-09T13:46:02.835Z,22.85
2022-11-09T13:48:43.157Z,25.60
2022-11-09T13:51:12.834Z,26.73
2022-11-09T13:53:39.475Z,25.92
2022-11-09T13:56:37.538Z,25.80
2022-11-09T13:59:21.020Z,23.48
2022-11-09T14:01:55.096Z,26.98
2022-11-09T14:04:30.415Z,22.65
2022-11-09T14:07:27.788Z,24.25
2022-11-09T14:10:12.463Z,24.35
2022-11-09T14:12:52.636Z,37.50
2022-11-09T14:15:40.222Z,34.55
2022-11-09T14:18:40.418Z,30.58
2022-11-09T14:21:35.373Z,32.28
2022-11-09T14:24:11.014Z,31.23
2022-11-09T14:26:37.696Z,30.38
2022-11-09T14:29:24.797Z,32.83
2022-11-09T14:31:51.491Z,32.28
2022-11-09T14:34:18.807Z,34.05
2022-11-09T14:36:45.507Z,30.83
2022-11-09T14:39:27.847Z,32.67
2022-11-09T14:41:55.390Z,28.40
2022-11-09T14:44:32.678Z,28.00
2022-11-09T14:47:00.485Z,29.73
2022-11-09T14:49:28.728Z,27.90
2022-11-09T14:51:55.758Z,30.10
2022-11-09T14:54:26.124Z,27.85
2022-11-09T14:56:54.887Z,37.28
2022-11-09T14:59:36.375Z,36.88
2022-11-09T15:02:05.226Z,32.67
2022-11-09T15:04:58.446Z,34.42
2022-11-09T15:07:34.459Z,32.45
2022-11-09T15:10:06.236Z,32.55
2022-11-09T15:12:33.737Z,29.05
2022-11-09T15:15:06.097Z,32.38
2022-11-09T15:17:36.008Z,29.02
2022-11-09T15:20:25.392Z,33.55
2022-11-09T15:23:05.845Z,31.38
2022-11-09T15:25:41.477Z,36.08
2022-11-09T15:28:16.500Z,34.28
2022-11-09T15:30:47.191Z,35.10
2022-11-09T15:33:20.051Z,31.33
2022-11-09T15:35:50.834Z,37.20
2022-11-09T15:38:33.917Z,33.67
2022-11-09T15:41:01.578Z,35.65
2022-11-09T15:43:28.716Z,40.00
2022-11-09T15:45:57.289Z,50.47
2022-11-09T15:48:24.312Z,56.95
2022-11-09T15:50:51.095Z,58.15
2022-11-09T15:53:17.787Z,61.17
2022-11-09T15:55:44.704Z,60.45
2022-11-09T15:58:15.956Z,60.53
2022-11-09T16:00:43.501Z,59.45
2022-11-09T16:03:10.961Z,58.25
2022-11-09T16:05:38.114Z,60.97
2022-11-09T16:08:07.575Z,61.55
2022-11-09T16:10:37.895Z,68.30
2022-11-09T16:13:06.475Z,68.18
2022-11-09T16:15:35.285Z,65.97
2022-11-09T16:18:02.171Z,74.43
2022-11-09T16:20:29.777Z,74.55
2022-11-09T16:22:57.080Z,83.75
2022-11-09T16:25:23.797Z,100.07
2022-11-09T16:27:51.376Z,87.55
2022-11-09T16:30:19.440Z,92.05
2022-11-09T16:32:46.284Z,88.60
2022-11-09T16:35:29.017Z,93.97
2022-11-09T16:37:57.490Z,102.75
2022-11-09T16:40:24.390Z,105.93
2022-11-09T16:42:52.312Z,123.90
2022-11-09T16:45:19.510Z,119.43
2022-11-09T16:47:50.899Z,137.82
2022-11-09T16:50:20.231Z,133.75
2022-11-09T16:52:46.954Z,136.73
2022-11-09T16:55:13.634Z,128.43
2022-11-09T16:57:40.787Z,112.78
2022-11-09T17:00:08.829Z,127.68
2022-11-09T17:02:35.733Z,125.85
2022-11-09T17:05:02.884Z,124.15
2022-11-09T17:07:29.700Z,129.60
2022-11-09T17:09:56.580Z,129.27
2022-11-09T17:12:23.337Z,159.15
2022-11-09T17:14:50.142Z,172.50
2022-11-09T17:17:22.265Z,178.10
2022-11-09T17:19:50.752Z,180.85
2022-11-09T17:22:17.751Z,169.10
2022-11-09T17:24:44.635Z,129.98
2022-11-09T17:27:12.421Z,141.85
2022-11-09T17:29:40.436Z,129.77
2022-11-09T17:32:09.318Z,124.53
2022-11-09T17:34:36.013Z,125.53
2022-11-09T17:37:04.572Z,126.18
2022-11-09T17:39:32.850Z,111.93
2022-11-09T17:41:59.810Z,120.82
2022-11-09T17:44:26.515Z,123.72
2022-11-09T17:46:53.434Z,116.15
2022-11-09T17:49:20.378Z,112.30
2022-11-09T17:51:47.116Z,106.70
2022-11-09T17:54:15.185Z,108.00
2022-11-09T17:56:42.874Z,115.15
2022-11-09T17:59:09.894Z,118.45
2022-11-09T18:01:41.427Z,123.45
2022-11-09T18:04:10.437Z,135.80
2022-11-09T18:06:38.334Z,129.75
2022-11-09T18:11:53.092Z,147.65
2022-11-09T18:14:20.043Z,136.40
2022-11-09T18:16:47.891Z,140.02
2022-11-09T18:19:14.631Z,123.60
2022-11-09T18:21:41.603Z,127.88
2022-11-09T18:24:08.649Z,149.80
2022-11-09T18:26:35.352Z,135.70
2022-11-09T18:29:02.110Z,120.05
2022-11-09T18:31:29.010Z,107.55
2022-11-09T18:33:55.697Z,104.07
2022-11-09T18:36:23.539Z,90.70
2022-11-09T18:38:51.981Z,79.57
2022-11-09T18:41:22.085Z,85.13
2022-11-09T18:43:50.078Z,77.00
2022-11-09T18:46:18.730Z,84.05
2022-11-09T18:48:49.637Z,72.28
2022-11-09T18:51:16.423Z,66.70
2022-11-09T18:53:45.317Z,63.80
2022-11-09T18:56:24.761Z,73.88
2022-11-09T18:58:54.896Z,75.47
2022-11-09T19:01:24.181Z,81.07
2022-11-09T19:03:56.369Z,72.47
2022-11-09T19:06:24.863Z,72.97
2022-11-09T19:09:10.731Z,78.75
2022-11-09T19:11:37.518Z,78.63
2022-11-09T19:14:04.485Z,81.75
2022-11-09T19:16:31.542Z,73.20
2022-11-09T19:18:58.335Z,79.20
2022-11-09T19:21:56.364Z,68.97
2022-11-09T19:24:26.033Z,82.30
2022-11-09T19:26:54.584Z,88.30
2022-11-09T19:29:21.709Z,87.05
2022-11-09T19:31:48.771Z,84.75
2022-11-09T19:34:20.550Z,76.18
2022-11-09T19:36:47.789Z,90.53
2022-11-09T19:39:15.556Z,74.97
2022-11-09T19:41:42.656Z,80.60
2022-11-09T19:44:13.146Z,79.57
2022-11-09T19:49:07.326Z,88.63
2022-11-09T19:51:34.921Z,86.32
2022-11-09T19:54:03.949Z,72.13
2022-11-09T19:56:32.092Z,81.22
2022-11-09T19:59:01.870Z,87.72
2022-11-09T20:01:30.719Z,108.97
2022-11-09T20:03:59.540Z,123.32
2022-11-09T20:06:27.548Z,122.40
2022-11-09T20:08:54.260Z,124.90
2022-11-09T20:11:41.920Z,117.28
2022-11-09T20:14:09.899Z,127.28
2022-11-09T20:16:37.490Z,134.73
2022-11-09T20:19:06.680Z,115.38
2022-11-09T20:21:33.419Z,115.35
2022-11-09T20:24:00.120Z,119.22
2022-11-09T20:26:27.020Z,117.80
2022-11-09T20:28:54.946Z,125.63
2022-11-09T20:31:23.420Z,117.75
2022-11-09T20:33:50.807Z,116.90
2022-11-09T20:36:18.892Z,119.18
2022-11-09T20:38:46.726Z,115.60
2022-11-09T20:41:14.184Z,114.82
2022-11-09T20:43:41.168Z,107.28
2022-11-09T20:46:16.988Z,105.03
2022-11-09T20:48:54.079Z,109.93
2022-11-09T20:51:22.621Z,108.40
2022-11-09T20:53:50.542Z,110.43
2022-11-09T20:56:18.873Z,107.57
2022-11-09T20:58:45.713Z,110.68
2022-11-09T21:01:18.803Z,108.72
2022-11-09T21:03:46.191Z,106.35
2022-11-09T21:06:15.329Z,117.43
2022-11-09T21:08:52.738Z,114.10
2022-11-09T21:11:20.462Z,102.43
2022-11-09T21:13:51.829Z,114.68
2022-11-09T21:16:20.801Z,106.82
2022-11-09T21:18:48.261Z,105.63
2022-11-09T21:21:20.469Z,99.15
2022-11-09T21:24:06.145Z,99.80
2022-11-09T21:26:51.754Z,109.07
2022-11-09T21:29:39.963Z,109.15
2022-11-09T21:32:07.714Z,115.95
2022-11-09T21:34:37.026Z,129.93
2022-11-09T21:37:05.299Z,117.22
2022-11-09T21:39:32.471Z,110.82
2022-11-09T21:41:59.346Z,112.13
2022-11-09T21:44:29.047Z,129.07
2022-11-09T21:46:56.451Z,136.77
2022-11-09T21:49:24.189Z,131.80
2022-11-09T21:51:51.258Z,135.35
2022-11-09T21:54:20.095Z,134.00
2022-11-09T21:56:53.728Z,137.63
2022-11-09T21:59:20.559Z,163.98
2022-11-09T22:01:47.989Z,155.93
2022-11-09T22:04:15.470Z,146.98
2022-11-09T22:06:43.490Z,143.95
2022-11-09T22:09:16.165Z,143.43
2022-11-09T22:12:03.598Z,151.05
2022-11-09T22:14:50.125Z,146.27
2022-11-09T22:17:16.941Z,152.32
2022-11-09T22:20:02.302Z,156.90
2022-11-09T22:22:30.671Z,171.82
2022-11-09T22:24:58.148Z,184.35
2022-11-09T22:27:25.272Z,171.88
2022-11-09T22:29:52.952Z,164.52
2022-11-09T22:32:24.397Z,180.48
2022-11-09T22:34:54.093Z,185.57
2022-11-09T22:37:21.001Z,179.50
2022-11-09T22:39:48.708Z,175.13
2022-11-09T22:42:18.440Z,158.60
2022-11-09T22:44:45.238Z,171.55
2022-11-09T22:47:13.375Z,168.88
2022-11-09T22:49:45.268Z,169.48
2022-11-09T22:52:12.500Z,161.70
2022-11-09T22:54:39.287Z,149.57
2022-11-09T22:57:06.367Z,149.30
2022-11-09T22:59:35.365Z,125.65
2022-11-09T23:02:02.711Z,127.20
2022-11-09T23:05:32.621Z,143.38
2022-11-09T23:08:02.117Z,143.57
2022-11-09T23:10:31.484Z,157.77
2022-11-09T23:13:02.082Z,157.00
2022-11-09T23:18:16.859Z,155.43
2022-11-09T23:20:47.580Z,174.15
2022-11-09T23:23:14.541Z,149.30
2022-11-09T23:25:57.033Z,158.15
2022-11-09T23:28:25.301Z,188.52
2022-11-09T23:30:55.319Z,161.35
2022-11-09T23:33:22.550Z,142.18
2022-11-09T23:35:49.680Z,146.55
2022-11-09T23:38:16.389Z,147.07
2022-11-09T23:40:43.395Z,156.65
2022-11-09T23:43:12.060Z,134.00
2022-11-09T23:45:40.432Z,128.52
2022-11-09T23:48:10.789Z,137.70
2022-11-09T23:50:37.475Z,116.63
2022-11-09T23:53:04.483Z,129.05
2022-11-09T23:55:31.263Z,148.05
2022-11-09T23:58:02.010Z,112.05
